sensor_id;sensor_type;location;lat;lon;timestamp;P1;durP1;ratioP1;P2;durP2;ratioP2
1416;SDS011;703;51.162;13.574;2022-09-12T00:01:19;28.33;;;18.80;;
1416;SDS011;703;51.162;13.574;2022-09-12T00:03:46;30.00;;;17.70;;
1416;SDS011;703;51.162;13.574;2022-09-12T00:06:17;28.00;;;19.53;;
1416;SDS011;703;51.162;13.574;2022-09-12T00:08:45;29.13;;;18.30;;
1416;SDS011;703;51.162;13.574;2022-09-12T00:11:11;31.67;;;18.70;;
1416;SDS011;703;51.162;13.574;2022-09-12T00:13:38;29.70;;;18.40;;
1416;SDS011;703;51.162;13.574;2022-09-12T00:16:05;33.93;;;23.50;;
1416;SDS011;703;51.162;13.574;2022-09-12T00:18:31;34.23;;;20.47;;
1416;SDS011;703;51.162;13.574;2022-09-12T00:21:01;27.40;;;17.00;;
1416;SDS011;703;51.162;13.574;2022-09-12T00:23:28;27.27;;;18.13;;
1416;SDS011;703;51.162;13.574;2022-09-12T00:25:55;27.00;;;17.43;;
1416;SDS011;703;51.162;13.574;2022-09-12T00:28:20;28.43;;;18.67;;
1416;SDS011;703;51.162;13.574;2022-09-12T00:30:46;26.90;;;18.37;;
1416;SDS011;703;51.162;13.574;2022-09-12T00:33:13;32.07;;;19.63;;
1416;SDS011;703;51.162;13.574;2022-09-12T00:35:41;26.00;;;18.17;;
1416;SDS011;703;51.162;13.574;2022-09-12T00:38:08;29.73;;;19.20;;
1416;SDS011;703;51.162;13.574;2022-09-12T00:40:34;25.97;;;18.87;;
1416;SDS011;703;51.162;13.574;2022-09-12T00:42:59;29.80;;;19.17;;
1416;SDS011;703;51.162;13.574;2022-09-12T00:45:26;36.63;;;21.90;;
1416;SDS011;703;51.162;13.574;2022-09-12T00:47:53;39.50;;;24.33;;
1416;SDS011;703;51.162;13.574;2022-09-12T00:50:20;24.80;;;17.10;;
1416;SDS011;703;51.162;13.574;2022-09-12T00:52:50;26.50;;;18.87;;
1416;SDS011;703;51.162;13.574;2022-09-12T00:55:20;30.93;;;18.27;;
1416;SDS011;703;51.162;13.574;2022-09-12T00:57:53;36.90;;;24.90;;
1416;SDS011;703;51.162;13.574;2022-09-12T01:00:22;33.33;;;21.73;;
1416;SDS011;703;51.162;13.574;2022-09-12T01:02:55;31.40;;;21.27;;
1416;SDS011;703;51.162;13.574;2022-09-12T01:05:26;30.90;;;20.63;;
1416;SDS011;703;51.162;13.574;2022-09-12T01:07:53;27.30;;;18.80;;
1416;SDS011;703;51.162;13.574;2022-09-12T01:10:20;39.20;;;23.80;;
1416;SDS011;703;51.162;13.574;2022-09-12T01:12:46;36.30;;;21.00;;
1416;SDS011;703;51.162;13.574;2022-09-12T01:15:12;33.80;;;21.97;;
1416;SDS011;703;51.162;13.574;2022-09-12T01:17:47;33.30;;;21.27;;
1416;SDS011;703;51.162;13.574;2022-09-12T01:23:25;34.63;;;23.60;;
1416;SDS011;703;51.162;13.574;2022-09-12T01:26:17;31.77;;;20.87;;
1416;SDS011;703;51.162;13.574;2022-09-12T01:32:03;38.87;;;24.27;;
1416;SDS011;703;51.162;13.574;2022-09-12T01:35:04;35.27;;;23.17;;
1416;SDS011;703;51.162;13.574;2022-09-12T01:42:59;36.10;;;22.47;;
1416;SDS011;703;51.162;13.574;2022-09-12T01:45:41;37.10;;;23.70;;
1416;SDS011;703;51.162;13.574;2022-09-12T01:48:13;37.83;;;23.50;;
1416;SDS011;703;51.162;13.574;2022-09-12T01:50:51;31.43;;;21.07;;
1416;SDS011;703;51.162;13.574;2022-09-12T01:53:27;31.87;;;21.77;;
1416;SDS011;703;51.162;13.574;2022-09-12T01:56:17;36.43;;;24.30;;
1416;SDS011;703;51.162;13.574;2022-09-12T01:58:51;33.70;;;23.63;;
1416;SDS011;703;51.162;13.574;2022-09-12T02:04:19;39.23;;;25.70;;
1416;SDS011;703;51.162;13.574;2022-09-12T02:06:51;34.03;;;23.80;;
1416;SDS011;703;51.162;13.574;2022-09-12T02:09:33;41.67;;;26.17;;
1416;SDS011;703;51.162;13.574;2022-09-12T02:12:03;48.10;;;28.50;;
1416;SDS011;703;51.162;13.574;2022-09-12T02:14:35;43.57;;;28.30;;
1416;SDS011;703;51.162;13.574;2022-09-12T02:17:12;39.00;;;26.20;;
1416;SDS011;703;51.162;13.574;2022-09-12T02:19:51;33.77;;;23.97;;
1416;SDS011;703;51.162;13.574;2022-09-12T02:22:41;36.10;;;23.43;;
1416;SDS011;703;51.162;13.574;2022-09-12T02:25:09;41.93;;;23.87;;
1416;SDS011;703;51.162;13.574;2022-09-12T02:27:45;33.37;;;22.20;;
1416;SDS011;703;51.162;13.574;2022-09-12T02:30:36;38.97;;;24.80;;
1416;SDS011;703;51.162;13.574;2022-09-12T02:33:14;34.83;;;23.20;;
1416;SDS011;703;51.162;13.574;2022-09-12T02:35:52;34.53;;;23.10;;
1416;SDS011;703;51.162;13.574;2022-09-12T02:38:45;34.07;;;20.23;;
1416;SDS011;703;51.162;13.574;2022-09-12T02:41:13;33.53;;;21.80;;
1416;SDS011;703;51.162;13.574;2022-09-12T02:43:41;35.40;;;22.43;;
1416;SDS011;703;51.162;13.574;2022-09-12T02:46:08;38.37;;;24.80;;
1416;SDS011;703;51.162;13.574;2022-09-12T02:48:39;34.60;;;22.80;;
1416;SDS011;703;51.162;13.574;2022-09-12T02:51:07;37.13;;;23.40;;
1416;SDS011;703;51.162;13.574;2022-09-12T02:53:34;39.77;;;26.00;;
1416;SDS011;703;51.162;13.574;2022-09-12T02:56:01;37.60;;;24.10;;
1416;SDS011;703;51.162;13.574;2022-09-12T02:58:29;32.87;;;21.90;;
1416;SDS011;703;51.162;13.574;2022-09-12T03:00:59;36.90;;;23.70;;
1416;SDS011;703;51.162;13.574;2022-09-12T03:03:48;53.33;;;31.73;;
1416;SDS011;703;51.162;13.574;2022-09-12T03:08:55;38.90;;;25.17;;
1416;SDS011;703;51.162;13.574;2022-09-12T03:14:19;39.93;;;22.27;;
1416;SDS011;703;51.162;13.574;2022-09-12T03:22:37;37.17;;;23.90;;
1416;SDS011;703;51.162;13.574;2022-09-12T03:25:29;33.50;;;22.03;;
1416;SDS011;703;51.162;13.574;2022-09-12T03:28:07;37.03;;;23.00;;
1416;SDS011;703;51.162;13.574;2022-09-12T03:30:37;38.37;;;24.17;;
1416;SDS011;703;51.162;13.574;2022-09-12T03:33:14;32.43;;;19.87;;
1416;SDS011;703;51.162;13.574;2022-09-12T03:35:44;41.20;;;26.43;;
1416;SDS011;703;51.162;13.574;2022-09-12T03:38:11;65.33;;;45.27;;
1416;SDS011;703;51.162;13.574;2022-09-12T03:40:37;47.77;;;30.03;;
1416;SDS011;703;51.162;13.574;2022-09-12T03:43:03;52.83;;;36.50;;
1416;SDS011;703;51.162;13.574;2022-09-12T03:45:32;51.27;;;35.27;;
1416;SDS011;703;51.162;13.574;2022-09-12T03:47:57;45.13;;;32.47;;
1416;SDS011;703;51.162;13.574;2022-09-12T03:50:23;39.43;;;28.20;;
1416;SDS011;703;51.162;13.574;2022-09-12T03:52:49;43.17;;;30.27;;
1416;SDS011;703;51.162;13.574;2022-09-12T03:55:14;43.40;;;30.73;;
1416;SDS011;703;51.162;13.574;2022-09-12T03:57:41;55.80;;;34.33;;
1416;SDS011;703;51.162;13.574;2022-09-12T04:00:07;44.83;;;29.83;;
1416;SDS011;703;51.162;13.574;2022-09-12T04:02:33;43.77;;;27.53;;
1416;SDS011;703;51.162;13.574;2022-09-12T04:04:59;41.60;;;29.83;;
1416;SDS011;703;51.162;13.574;2022-09-12T04:07:25;41.43;;;27.23;;
1416;SDS011;703;51.162;13.574;2022-09-12T04:09:51;51.50;;;30.60;;
1416;SDS011;703;51.162;13.574;2022-09-12T04:12:17;34.40;;;22.80;;
1416;SDS011;703;51.162;13.574;2022-09-12T04:14:43;36.90;;;23.63;;
1416;SDS011;703;51.162;13.574;2022-09-12T04:17:09;38.93;;;23.17;;
1416;SDS011;703;51.162;13.574;2022-09-12T04:19:34;40.67;;;25.73;;
1416;SDS011;703;51.162;13.574;2022-09-12T04:22:00;48.83;;;29.67;;
1416;SDS011;703;51.162;13.574;2022-09-12T04:24:26;35.50;;;21.73;;
1416;SDS011;703;51.162;13.574;2022-09-12T04:26:51;42.37;;;24.30;;
1416;SDS011;703;51.162;13.574;2022-09-12T04:29:17;45.77;;;28.67;;
1416;SDS011;703;51.162;13.574;2022-09-12T04:31:43;41.87;;;29.60;;
1416;SDS011;703;51.162;13.574;2022-09-12T04:34:09;41.63;;;25.47;;
1416;SDS011;703;51.162;13.574;2022-09-12T04:36:35;44.30;;;28.33;;
1416;SDS011;703;51.162;13.574;2022-09-12T04:39:01;45.33;;;28.73;;
1416;SDS011;703;51.162;13.574;2022-09-12T04:41:29;51.93;;;30.20;;
1416;SDS011;703;51.162;13.574;2022-09-12T04:43:57;48.67;;;30.70;;
1416;SDS011;703;51.162;13.574;2022-09-12T04:46:32;35.30;;;22.40;;
1416;SDS011;703;51.162;13.574;2022-09-12T04:48:59;37.37;;;25.73;;
1416;SDS011;703;51.162;13.574;2022-09-12T04:51:26;58.13;;;33.67;;
1416;SDS011;703;51.162;13.574;2022-09-12T04:53:59;46.00;;;27.80;;
1416;SDS011;703;51.162;13.574;2022-09-12T04:56:30;58.87;;;34.47;;
1416;SDS011;703;51.162;13.574;2022-09-12T04:58:59;55.27;;;33.00;;
1416;SDS011;703;51.162;13.574;2022-09-12T05:01:25;47.97;;;28.93;;
1416;SDS011;703;51.162;13.574;2022-09-12T05:03:52;39.93;;;26.30;;
1416;SDS011;703;51.162;13.574;2022-09-12T05:06:25;34.77;;;22.83;;
1416;SDS011;703;51.162;13.574;2022-09-12T05:08:53;49.30;;;30.80;;
1416;SDS011;703;51.162;13.574;2022-09-12T05:11:21;59.97;;;31.00;;
1416;SDS011;703;51.162;13.574;2022-09-12T05:13:48;50.70;;;31.60;;
1416;SDS011;703;51.162;13.574;2022-09-12T05:16:14;49.20;;;26.17;;
1416;SDS011;703;51.162;13.574;2022-09-12T05:18:41;46.63;;;32.33;;
1416;SDS011;703;51.162;13.574;2022-09-12T05:21:09;53.50;;;30.70;;
1416;SDS011;703;51.162;13.574;2022-09-12T05:23:36;41.90;;;28.93;;
1416;SDS011;703;51.162;13.574;2022-09-12T05:26:02;41.70;;;28.93;;
1416;SDS011;703;51.162;13.574;2022-09-12T05:28:38;51.40;;;33.27;;
1416;SDS011;703;51.162;13.574;2022-09-12T05:31:05;44.53;;;27.70;;
1416;SDS011;703;51.162;13.574;2022-09-12T05:33:33;53.73;;;33.50;;
1416;SDS011;703;51.162;13.574;2022-09-12T05:36:00;45.67;;;29.53;;
1416;SDS011;703;51.162;13.574;2022-09-12T05:38:26;46.40;;;30.80;;
1416;SDS011;703;51.162;13.574;2022-09-12T05:41:16;42.53;;;27.57;;
1416;SDS011;703;51.162;13.574;2022-09-12T05:43:41;49.70;;;31.00;;
1416;SDS011;703;51.162;13.574;2022-09-12T05:46:09;48.93;;;32.53;;
1416;SDS011;703;51.162;13.574;2022-09-12T05:48:37;40.47;;;29.50;;
1416;SDS011;703;51.162;13.574;2022-09-12T05:51:05;41.97;;;28.43;;
1416;SDS011;703;51.162;13.574;2022-09-12T05:53:33;53.03;;;32.90;;
1416;SDS011;703;51.162;13.574;2022-09-12T05:56:03;48.50;;;33.10;;
1416;SDS011;703;51.162;13.574;2022-09-12T05:58:41;50.20;;;30.10;;
1416;SDS011;703;51.162;13.574;2022-09-12T06:01:15;52.10;;;33.70;;
1416;SDS011;703;51.162;13.574;2022-09-12T06:03:43;45.73;;;28.57;;
1416;SDS011;703;51.162;13.574;2022-09-12T06:06:09;38.10;;;26.00;;
1416;SDS011;703;51.162;13.574;2022-09-12T06:08:39;44.67;;;30.40;;
1416;SDS011;703;51.162;13.574;2022-09-12T06:11:07;53.07;;;28.00;;
1416;SDS011;703;51.162;13.574;2022-09-12T06:13:34;48.17;;;31.63;;
1416;SDS011;703;51.162;13.574;2022-09-12T06:16:02;47.67;;;29.27;;
1416;SDS011;703;51.162;13.574;2022-09-12T06:18:29;42.23;;;29.57;;
1416;SDS011;703;51.162;13.574;2022-09-12T06:20:55;39.07;;;25.87;;
1416;SDS011;703;51.162;13.574;2022-09-12T06:23:20;43.83;;;28.73;;
1416;SDS011;703;51.162;13.574;2022-09-12T06:25:46;37.67;;;25.13;;
1416;SDS011;703;51.162;13.574;2022-09-12T06:28:16;46.83;;;27.37;;
1416;SDS011;703;51.162;13.574;2022-09-12T06:30:41;41.23;;;26.63;;
1416;SDS011;703;51.162;13.574;2022-09-12T06:33:07;39.93;;;26.50;;
1416;SDS011;703;51.162;13.574;2022-09-12T06:35:36;41.87;;;28.63;;
1416;SDS011;703;51.162;13.574;2022-09-12T06:38:02;35.30;;;24.67;;
1416;SDS011;703;51.162;13.574;2022-09-12T06:40:29;41.80;;;28.97;;
1416;SDS011;703;51.162;13.574;2022-09-12T06:42:55;33.73;;;22.73;;
1416;SDS011;703;51.162;13.574;2022-09-12T06:45:21;39.93;;;26.03;;
1416;SDS011;703;51.162;13.574;2022-09-12T06:47:47;36.13;;;27.00;;
1416;SDS011;703;51.162;13.574;2022-09-12T06:50:12;36.93;;;22.97;;
1416;SDS011;703;51.162;13.574;2022-09-12T06:52:38;40.10;;;25.20;;
1416;SDS011;703;51.162;13.574;2022-09-12T06:55:04;38.53;;;25.70;;
1416;SDS011;703;51.162;13.574;2022-09-12T06:57:30;30.53;;;20.60;;
1416;SDS011;703;51.162;13.574;2022-09-12T06:59:56;34.57;;;22.27;;
1416;SDS011;703;51.162;13.574;2022-09-12T07:02:22;39.67;;;24.47;;
1416;SDS011;703;51.162;13.574;2022-09-12T07:04:50;35.63;;;25.23;;
1416;SDS011;703;51.162;13.574;2022-09-12T07:07:15;34.97;;;21.93;;
1416;SDS011;703;51.162;13.574;2022-09-12T07:09:41;38.70;;;26.17;;
1416;SDS011;703;51.162;13.574;2022-09-12T07:12:07;37.47;;;25.90;;
1416;SDS011;703;51.162;13.574;2022-09-12T07:14:32;32.73;;;22.63;;
1416;SDS011;703;51.162;13.574;2022-09-12T07:16:58;35.70;;;25.77;;
1416;SDS011;703;51.162;13.574;2022-09-12T07:19:23;31.77;;;20.97;;
1416;SDS011;703;51.162;13.574;2022-09-12T07:21:49;34.63;;;20.07;;
1416;SDS011;703;51.162;13.574;2022-09-12T07:24:15;29.70;;;18.70;;
1416;SDS011;703;51.162;13.574;2022-09-12T07:26:40;30.87;;;20.33;;
1416;SDS011;703;51.162;13.574;2022-09-12T07:29:06;31.33;;;20.57;;
1416;SDS011;703;51.162;13.574;2022-09-12T07:31:37;31.70;;;21.00;;
1416;SDS011;703;51.162;13.574;2022-09-12T07:34:06;27.80;;;19.50;;
1416;SDS011;703;51.162;13.574;2022-09-12T07:36:31;33.80;;;23.10;;
1416;SDS011;703;51.162;13.574;2022-09-12T07:38:57;27.90;;;20.17;;
1416;SDS011;703;51.162;13.574;2022-09-12T07:41:27;36.60;;;24.17;;
1416;SDS011;703;51.162;13.574;2022-09-12T07:43:55;32.27;;;20.97;;
1416;SDS011;703;51.162;13.574;2022-09-12T07:46:22;32.10;;;23.90;;
1416;SDS011;703;51.162;13.574;2022-09-12T07:48:52;26.67;;;19.80;;
1416;SDS011;703;51.162;13.574;2022-09-12T07:51:19;28.00;;;18.43;;
1416;SDS011;703;51.162;13.574;2022-09-12T07:53:46;27.00;;;19.67;;
1416;SDS011;703;51.162;13.574;2022-09-12T07:56:13;28.97;;;19.97;;
1416;SDS011;703;51.162;13.574;2022-09-12T07:58:40;26.53;;;17.90;;
1416;SDS011;703;51.162;13.574;2022-09-12T08:01:07;25.47;;;16.57;;
1416;SDS011;703;51.162;13.574;2022-09-12T08:03:35;27.60;;;18.77;;
1416;SDS011;703;51.162;13.574;2022-09-12T08:06:02;24.93;;;17.67;;
1416;SDS011;703;51.162;13.574;2022-09-12T08:08:27;24.77;;;16.97;;
1416;SDS011;703;51.162;13.574;2022-09-12T08:11:00;26.33;;;18.80;;
1416;SDS011;703;51.162;13.574;2022-09-12T08:13:28;23.50;;;16.23;;
1416;SDS011;703;51.162;13.574;2022-09-12T08:15:58;23.80;;;17.43;;
1416;SDS011;703;51.162;13.574;2022-09-12T08:18:26;21.37;;;14.47;;
1416;SDS011;703;51.162;13.574;2022-09-12T08:20:59;23.70;;;16.07;;
1416;SDS011;703;51.162;13.574;2022-09-12T08:23:27;21.67;;;15.47;;
1416;SDS011;703;51.162;13.574;2022-09-12T08:25:54;19.70;;;13.13;;
1416;SDS011;703;51.162;13.574;2022-09-12T08:28:21;18.97;;;12.93;;
1416;SDS011;703;51.162;13.574;2022-09-12T08:30:47;18.30;;;12.17;;
1416;SDS011;703;51.162;13.574;2022-09-12T08:33:13;19.37;;;12.27;;
1416;SDS011;703;51.162;13.574;2022-09-12T08:35:39;18.67;;;11.83;;
1416;SDS011;703;51.162;13.574;2022-09-12T08:38:05;21.23;;;14.10;;
1416;SDS011;703;51.162;13.574;2022-09-12T08:40:31;18.53;;;11.53;;
1416;SDS011;703;51.162;13.574;2022-09-12T08:43:06;24.47;;;12.60;;
1416;SDS011;703;51.162;13.574;2022-09-12T08:45:52;18.83;;;12.93;;
1416;SDS011;703;51.162;13.574;2022-09-12T08:48:24;18.93;;;12.97;;
1416;SDS011;703;51.162;13.574;2022-09-12T08:50:50;17.97;;;10.90;;
1416;SDS011;703;51.162;13.574;2022-09-12T08:53:18;23.33;;;15.03;;
1416;SDS011;703;51.162;13.574;2022-09-12T08:55:55;17.73;;;12.10;;
1416;SDS011;703;51.162;13.574;2022-09-12T08:58:24;17.50;;;10.40;;
1416;SDS011;703;51.162;13.574;2022-09-12T09:03:45;16.47;;;9.90;;
1416;SDS011;703;51.162;13.574;2022-09-12T09:11:41;16.90;;;8.30;;
1416;SDS011;703;51.162;13.574;2022-09-12T09:17:16;16.13;;;9.40;;
1416;SDS011;703;51.162;13.574;2022-09-12T09:20:34;14.70;;;7.70;;
1416;SDS011;703;51.162;13.574;2022-09-12T09:22:42;16.73;;;8.70;;
1416;SDS011;703;51.162;13.574;2022-09-12T09:25:20;15.20;;;8.30;;
1416;SDS011;703;51.162;13.574;2022-09-12T09:28:15;14.80;;;8.23;;
1416;SDS011;703;51.162;13.574;2022-09-12T09:30:56;15.30;;;6.70;;
1416;SDS011;703;51.162;13.574;2022-09-12T09:33:23;13.40;;;6.70;;
1416;SDS011;703;51.162;13.574;2022-09-12T09:35:57;15.50;;;7.50;;
1416;SDS011;703;51.162;13.574;2022-09-12T09:41:22;13.47;;;7.47;;
1416;SDS011;703;51.162;13.574;2022-09-12T09:43:51;15.77;;;7.63;;
1416;SDS011;703;51.162;13.574;2022-09-12T09:46:16;13.60;;;6.83;;
1416;SDS011;703;51.162;13.574;2022-09-12T09:48:43;13.67;;;6.07;;
1416;SDS011;703;51.162;13.574;2022-09-12T09:51:12;20.50;;;5.37;;
1416;SDS011;703;51.162;13.574;2022-09-12T09:53:49;13.10;;;5.17;;
1416;SDS011;703;51.162;13.574;2022-09-12T09:56:37;12.30;;;5.10;;
1416;SDS011;703;51.162;13.574;2022-09-12T09:59:10;11.50;;;4.40;;
1416;SDS011;703;51.162;13.574;2022-09-12T10:01:58;11.40;;;4.40;;
1416;SDS011;703;51.162;13.574;2022-09-12T10:04:38;11.30;;;3.97;;
1416;SDS011;703;51.162;13.574;2022-09-12T10:07:16;11.23;;;4.53;;
1416;SDS011;703;51.162;13.574;2022-09-12T10:09:44;11.50;;;4.10;;
1416;SDS011;703;51.162;13.574;2022-09-12T10:12:43;11.93;;;4.00;;
1416;SDS011;703;51.162;13.574;2022-09-12T10:15:19;11.60;;;3.43;;
1416;SDS011;703;51.162;13.574;2022-09-12T10:17:48;13.07;;;4.63;;
1416;SDS011;703;51.162;13.574;2022-09-12T10:25:55;11.10;;;4.03;;
1416;SDS011;703;51.162;13.574;2022-09-12T10:28:32;10.60;;;3.13;;
1416;SDS011;703;51.162;13.574;2022-09-12T10:31:02;11.47;;;3.83;;
1416;SDS011;703;51.162;13.574;2022-09-12T10:33:29;10.90;;;3.90;;
1416;SDS011;703;51.162;13.574;2022-09-12T10:36:01;11.20;;;3.97;;
1416;SDS011;703;51.162;13.574;2022-09-12T10:38:27;12.00;;;4.00;;
1416;SDS011;703;51.162;13.574;2022-09-12T10:48:44;10.63;;;3.00;;
1416;SDS011;703;51.162;13.574;2022-09-12T10:53:49;10.87;;;3.00;;
1416;SDS011;703;51.162;13.574;2022-09-12T10:56:18;11.87;;;3.33;;
1416;SDS011;703;51.162;13.574;2022-09-12T10:59:05;11.00;;;3.50;;
1416;SDS011;703;51.162;13.574;2022-09-12T11:01:49;12.50;;;3.57;;
1416;SDS011;703;51.162;13.574;2022-09-12T11:19:11;10.70;;;3.13;;
1416;SDS011;703;51.162;13.574;2022-09-12T11:21:55;10.77;;;2.57;;
1416;SDS011;703;51.162;13.574;2022-09-12T11:30:09;11.53;;;2.37;;
1416;SDS011;703;51.162;13.574;2022-09-12T11:35:37;11.13;;;3.03;;
1416;SDS011;703;51.162;13.574;2022-09-12T11:43:21;11.07;;;3.40;;
1416;SDS011;703;51.162;13.574;2022-09-12T11:45:53;10.60;;;3.00;;
1416;SDS011;703;51.162;13.574;2022-09-12T11:48:31;11.87;;;3.03;;
1416;SDS011;703;51.162;13.574;2022-09-12T11:51:07;13.17;;;2.63;;
1416;SDS011;703;51.162;13.574;2022-09-12T11:53:43;10.80;;;2.93;;
1416;SDS011;703;51.162;13.574;2022-09-12T11:56:24;10.63;;;3.50;;
1416;SDS011;703;51.162;13.574;2022-09-12T11:59:01;10.60;;;3.30;;
1416;SDS011;703;51.162;13.574;2022-09-12T12:01:40;11.60;;;3.10;;
1416;SDS011;703;51.162;13.574;2022-09-12T12:04:11;10.40;;;2.90;;
1416;SDS011;703;51.162;13.574;2022-09-12T12:06:54;10.97;;;2.60;;
1416;SDS011;703;51.162;13.574;2022-09-12T12:09:35;10.80;;;2.60;;
1416;SDS011;703;51.162;13.574;2022-09-12T12:12:10;10.37;;;2.63;;
1416;SDS011;703;51.162;13.574;2022-09-12T12:14:42;9.90;;;2.50;;
1416;SDS011;703;51.162;13.574;2022-09-12T12:17:17;11.47;;;3.10;;
1416;SDS011;703;51.162;13.574;2022-09-12T12:19:45;10.40;;;3.10;;
1416;SDS011;703;51.162;13.574;2022-09-12T12:22:19;14.07;;;3.30;;
1416;SDS011;703;51.162;13.574;2022-09-12T12:24:54;10.40;;;2.90;;
1416;SDS011;703;51.162;13.574;2022-09-12T12:32:58;11.27;;;3.50;;
1416;SDS011;703;51.162;13.574;2022-09-12T12:37:59;10.40;;;3.20;;
1416;SDS011;703;51.162;13.574;2022-09-12T12:40:27;10.40;;;3.27;;
1416;SDS011;703;51.162;13.574;2022-09-12T12:42:58;10.63;;;2.90;;
1416;SDS011;703;51.162;13.574;2022-09-12T12:48:01;11.80;;;3.30;;
1416;SDS011;703;51.162;13.574;2022-09-12T12:50:33;10.87;;;3.77;;
1416;SDS011;703;51.162;13.574;2022-09-12T12:53:06;11.90;;;3.10;;
1416;SDS011;703;51.162;13.574;2022-09-12T12:55:47;10.40;;;3.30;;
1416;SDS011;703;51.162;13.574;2022-09-12T13:01:13;9.80;;;2.60;;
1416;SDS011;703;51.162;13.574;2022-09-12T13:04:10;10.40;;;3.00;;
1416;SDS011;703;51.162;13.574;2022-09-12T13:06:37;11.37;;;2.40;;
1416;SDS011;703;51.162;13.574;2022-09-12T13:11:58;11.50;;;2.53;;
1416;SDS011;703;51.162;13.574;2022-09-12T13:17:30;9.73;;;2.50;;
1416;SDS011;703;51.162;13.574;2022-09-12T13:20:05;10.50;;;2.70;;
1416;SDS011;703;51.162;13.574;2022-09-12T13:22:39;10.70;;;2.60;;
1416;SDS011;703;51.162;13.574;2022-09-12T13:25:20;10.33;;;3.10;;
1416;SDS011;703;51.162;13.574;2022-09-12T13:30:27;13.30;;;3.00;;
1416;SDS011;703;51.162;13.574;2022-09-12T13:32:56;10.60;;;2.50;;
1416;SDS011;703;51.162;13.574;2022-09-12T13:38:21;10.90;;;2.77;;
1416;SDS011;703;51.162;13.574;2022-09-12T13:43:36;10.10;;;2.47;;
1416;SDS011;703;51.162;13.574;2022-09-12T13:46:06;10.57;;;3.00;;
1416;SDS011;703;51.162;13.574;2022-09-12T13:48:33;11.90;;;3.00;;
1416;SDS011;703;51.162;13.574;2022-09-12T13:50:59;9.77;;;2.70;;
1416;SDS011;703;51.162;13.574;2022-09-12T13:53:28;12.63;;;2.77;;
1416;SDS011;703;51.162;13.574;2022-09-12T13:56:00;10.60;;;2.80;;
1416;SDS011;703;51.162;13.574;2022-09-12T13:58:28;11.13;;;3.87;;
1416;SDS011;703;51.162;13.574;2022-09-12T14:01:06;10.07;;;2.60;;
1416;SDS011;703;51.162;13.574;2022-09-12T14:03:33;13.93;;;3.10;;
1416;SDS011;703;51.162;13.574;2022-09-12T14:06:26;9.97;;;2.57;;
1416;SDS011;703;51.162;13.574;2022-09-12T14:08:52;10.43;;;2.60;;
1416;SDS011;703;51.162;13.574;2022-09-12T14:11:27;9.90;;;2.80;;
1416;SDS011;703;51.162;13.574;2022-09-12T14:13:54;9.70;;;2.10;;
1416;SDS011;703;51.162;13.574;2022-09-12T14:16:21;10.53;;;2.60;;
1416;SDS011;703;51.162;13.574;2022-09-12T14:18:49;9.90;;;2.37;;
1416;SDS011;703;51.162;13.574;2022-09-12T14:23:58;10.33;;;2.70;;
1416;SDS011;703;51.162;13.574;2022-09-12T14:26:25;9.60;;;2.30;;
1416;SDS011;703;51.162;13.574;2022-09-12T14:28:56;10.17;;;2.70;;
1416;SDS011;703;51.162;13.574;2022-09-12T14:31:23;11.43;;;2.70;;
1416;SDS011;703;51.162;13.574;2022-09-12T14:33:54;9.73;;;2.60;;
1416;SDS011;703;51.162;13.574;2022-09-12T14:36:33;12.00;;;2.77;;
1416;SDS011;703;51.162;13.574;2022-09-12T14:39:04;10.43;;;3.53;;
1416;SDS011;703;51.162;13.574;2022-09-12T14:41:39;9.80;;;2.83;;
1416;SDS011;703;51.162;13.574;2022-09-12T14:44:07;11.80;;;2.40;;
1416;SDS011;703;51.162;13.574;2022-09-12T14:46:40;9.80;;;2.60;;
1416;SDS011;703;51.162;13.574;2022-09-12T14:49:27;10.00;;;2.23;;
1416;SDS011;703;51.162;13.574;2022-09-12T14:52:43;9.97;;;2.60;;
1416;SDS011;703;51.162;13.574;2022-09-12T15:07:34;9.80;;;2.23;;
1416;SDS011;703;51.162;13.574;2022-09-12T15:15:34;10.80;;;2.10;;
1416;SDS011;703;51.162;13.574;2022-09-12T15:18:01;10.00;;;2.53;;
1416;SDS011;703;51.162;13.574;2022-09-12T15:20:27;9.40;;;1.87;;
1416;SDS011;703;51.162;13.574;2022-09-12T15:22:53;10.50;;;2.73;;
1416;SDS011;703;51.162;13.574;2022-09-12T15:25:18;10.00;;;2.50;;
1416;SDS011;703;51.162;13.574;2022-09-12T15:27:45;9.80;;;2.17;;
1416;SDS011;703;51.162;13.574;2022-09-12T15:30:11;10.70;;;1.90;;
1416;SDS011;703;51.162;13.574;2022-09-12T15:32:37;11.53;;;2.37;;
1416;SDS011;703;51.162;13.574;2022-09-12T15:35:25;9.80;;;2.20;;
1416;SDS011;703;51.162;13.574;2022-09-12T15:37:52;11.73;;;2.03;;
1416;SDS011;703;51.162;13.574;2022-09-12T15:40:17;10.20;;;2.40;;
1416;SDS011;703;51.162;13.574;2022-09-12T15:42:44;10.57;;;2.27;;
1416;SDS011;703;51.162;13.574;2022-09-12T15:45:13;9.60;;;2.23;;
1416;SDS011;703;51.162;13.574;2022-09-12T15:47:42;10.00;;;2.40;;
1416;SDS011;703;51.162;13.574;2022-09-12T15:50:08;9.93;;;2.10;;
1416;SDS011;703;51.162;13.574;2022-09-12T15:52:35;10.73;;;2.57;;
1416;SDS011;703;51.162;13.574;2022-09-12T15:55:00;10.17;;;2.30;;
1416;SDS011;703;51.162;13.574;2022-09-12T15:57:27;10.80;;;2.47;;
1416;SDS011;703;51.162;13.574;2022-09-12T15:59:52;11.27;;;2.20;;
1416;SDS011;703;51.162;13.574;2022-09-12T16:02:18;11.80;;;2.70;;
1416;SDS011;703;51.162;13.574;2022-09-12T16:04:44;9.80;;;2.27;;
1416;SDS011;703;51.162;13.574;2022-09-12T16:07:12;9.90;;;2.37;;
1416;SDS011;703;51.162;13.574;2022-09-12T16:09:37;11.40;;;2.30;;
1416;SDS011;703;51.162;13.574;2022-09-12T16:12:03;9.60;;;2.23;;
1416;SDS011;703;51.162;13.574;2022-09-12T16:14:29;10.40;;;2.70;;
1416;SDS011;703;51.162;13.574;2022-09-12T16:16:55;9.97;;;2.70;;
1416;SDS011;703;51.162;13.574;2022-09-12T16:19:20;9.93;;;2.53;;
1416;SDS011;703;51.162;13.574;2022-09-12T16:21:46;10.53;;;2.63;;
1416;SDS011;703;51.162;13.574;2022-09-12T16:24:13;10.00;;;2.63;;
1416;SDS011;703;51.162;13.574;2022-09-12T16:26:39;10.20;;;2.50;;
1416;SDS011;703;51.162;13.574;2022-09-12T16:29:05;9.90;;;2.37;;
1416;SDS011;703;51.162;13.574;2022-09-12T16:31:33;9.97;;;2.53;;
1416;SDS011;703;51.162;13.574;2022-09-12T16:34:02;11.37;;;2.40;;
1416;SDS011;703;51.162;13.574;2022-09-12T16:36:27;10.43;;;2.53;;
1416;SDS011;703;51.162;13.574;2022-09-12T16:38:53;9.97;;;2.50;;
1416;SDS011;703;51.162;13.574;2022-09-12T16:41:20;9.90;;;2.50;;
1416;SDS011;703;51.162;13.574;2022-09-12T16:43:49;11.03;;;3.23;;
1416;SDS011;703;51.162;13.574;2022-09-12T16:46:18;10.07;;;2.80;;
1416;SDS011;703;51.162;13.574;2022-09-12T16:48:49;9.80;;;2.53;;
1416;SDS011;703;51.162;13.574;2022-09-12T16:51:18;10.10;;;2.70;;
1416;SDS011;703;51.162;13.574;2022-09-12T16:53:45;9.80;;;2.80;;
1416;SDS011;703;51.162;13.574;2022-09-12T16:56:11;12.77;;;3.40;;
1416;SDS011;703;51.162;13.574;2022-09-12T16:58:37;12.60;;;2.20;;
1416;SDS011;703;51.162;13.574;2022-09-12T17:01:05;13.40;;;2.37;;
1416;SDS011;703;51.162;13.574;2022-09-12T17:03:33;11.70;;;2.97;;
1416;SDS011;703;51.162;13.574;2022-09-12T17:06:00;9.80;;;2.47;;
1416;SDS011;703;51.162;13.574;2022-09-12T17:08:37;10.00;;;2.53;;
1416;SDS011;703;51.162;13.574;2022-09-12T17:11:05;11.27;;;2.77;;
1416;SDS011;703;51.162;13.574;2022-09-12T17:13:36;9.70;;;2.97;;
1416;SDS011;703;51.162;13.574;2022-09-12T17:16:09;10.70;;;3.83;;
1416;SDS011;703;51.162;13.574;2022-09-12T17:18:38;11.90;;;3.30;;
1416;SDS011;703;51.162;13.574;2022-09-12T17:21:05;10.70;;;3.40;;
1416;SDS011;703;51.162;13.574;2022-09-12T17:23:32;11.50;;;4.03;;
1416;SDS011;703;51.162;13.574;2022-09-12T17:25:58;10.50;;;2.93;;
1416;SDS011;703;51.162;13.574;2022-09-12T17:28:24;10.10;;;2.93;;